Time;durP1;ratioP1;P1;durP2;ratioP2;P2;SDS_P1;SDS_P2;PMS_P1;PMS_P2;Temp;Humidity;BMP_temperature;BMP_pressure;BME280_temperature;BME280_humidity;BME280_pressure;Samples;Min_cycle;Max_cycle;Signal;HPM_P1;HPM_P2
2023/09/02 00:00:08;;;;;;;0.20;0.20;;;;;;;17.35;71.06;99587.56;4980543;28;20053;-69
2023/09/02 00:02:43;;;;;;;0.20;0.20;;;;;;;17.35;70.73;99585.63;4982943;28;20046;-70
2023/09/02 00:05:09;;;;;;;0.20;0.20;;;;;;;17.34;70.90;99578.50;4987288;28;20145;-70
2023/09/02 00:07:35;;;;;;;0.20;0.20;;;;;;;17.25;70.84;99563.84;4986943;28;20050;-70
2023/09/02 00:10:01;;;;;;;0.20;0.20;;;;;;;17.42;70.73;99574.88;4986336;28;20074;-70
2023/09/02 00:12:29;;;;;;;0.20;0.20;;;;;;;17.37;71.09;99575.06;4999073;28;20151;-70
2023/09/02 00:14:55;;;;;;;0.28;0.28;;;;;;;17.30;71.17;99574.72;5002272;28;20120;-73
2023/09/02 00:17:21;;;;;;;0.20;0.20;;;;;;;17.27;71.51;99564.34;4988804;28;20518;-70
2023/09/02 00:19:47;;;;;;;0.20;0.20;;;;;;;17.27;71.67;99569.88;4983742;28;20050;-71
2023/09/02 00:22:13;;;;;;;0.20;0.20;;;;;;;17.27;71.71;99565.16;4981422;28;20042;-70
2023/09/02 00:24:39;;;;;;;0.30;0.30;;;;;;;17.28;71.46;99564.03;4977361;28;20054;-70
2023/09/02 00:27:06;;;;;;;0.20;0.20;;;;;;;17.26;71.91;99573.75;4985653;28;20505;-70
2023/09/02 00:29:34;;;;;;;0.20;0.20;;;;;;;17.28;71.75;99571.47;4996243;28;20057;-70
2023/09/02 00:32:00;;;;;;;0.20;0.20;;;;;;;17.22;71.56;99562.53;4998241;28;20050;-71
2023/09/02 00:34:27;;;;;;;0.20;0.20;;;;;;;17.28;71.52;99564.03;4983114;28;20137;-71
2023/09/02 00:36:53;;;;;;;0.20;0.20;;;;;;;17.25;71.62;99561.91;4986331;28;20132;-71
2023/09/02 00:39:19;;;;;;;0.20;0.20;;;;;;;17.14;71.41;99542.06;4986664;28;20046;-70
2023/09/02 00:41:49;;;;;;;0.25;0.25;;;;;;;17.22;71.49;99562.53;4983939;28;20127;-71
2023/09/02 00:44:15;;;;;;;0.20;0.20;;;;;;;17.19;72.06;99559.66;4986597;28;20181;-71
2023/09/02 00:46:44;;;;;;;0.20;0.20;;;;;;;17.20;71.92;99561.28;4982230;28;20042;-71
2023/09/02 00:49:10;;;;;;;0.20;0.20;;;;;;;17.17;71.95;99565.47;4986865;28;20501;-70
2023/09/02 00:51:36;;;;;;;0.20;0.20;;;;;;;17.08;72.23;99556.38;4986196;28;20532;-70
2023/09/02 00:54:03;;;;;;;0.20;0.20;;;;;;;17.06;72.58;99562.25;4983670;28;20046;-69
2023/09/02 00:56:30;;;;;;;0.20;0.20;;;;;;;17.11;72.72;99566.78;4957284;28;20043;-70
2023/09/02 00:58:59;;;;;;;0.20;0.20;;;;;;;17.08;72.96;99562.72;4986363;28;20066;-72
2023/09/02 01:01:27;;;;;;;0.20;0.20;;;;;;;17.06;72.72;99559.47;4970177;28;20680;-69
2023/09/02 01:03:55;;;;;;;0.20;0.20;;;;;;;17.00;72.85;99558.00;4986793;28;20138;-70
2023/09/02 01:06:21;;;;;;;0.20;0.20;;;;;;;16.97;73.42;99550.34;4965328;28;20062;-69
2023/09/02 01:08:48;;;;;;;0.20;0.20;;;;;;;16.95;73.58;99555.38;4963861;28;20055;-70
2023/09/02 01:11:14;;;;;;;0.20;0.20;;;;;;;16.93;73.37;99555.69;4965449;28;20054;-70
2023/09/02 01:13:40;;;;;;;0.20;0.20;;;;;;;16.92;73.49;99550.50;4981776;28;20145;-71
2023/09/02 01:16:07;;;;;;;0.20;0.20;;;;;;;16.87;73.76;99552.28;4983853;28;20104;-69
2023/09/02 01:18:36;;;;;;;0.20;0.20;;;;;;;16.83;73.82;99544.97;4986328;28;20050;-70
2023/09/02 01:21:19;;;;;;;0.20;0.20;;;;;;;16.78;74.14;99545.94;4983279;28;20049;-70
2023/09/02 01:24:05;;;;;;;0.20;0.20;;;;;;;16.75;74.34;99546.59;4983405;28;20137;-70
2023/09/02 01:27:04;;;;;;;0.20;0.20;;;;;;;16.75;74.64;99552.09;4967346;28;20046;-70
2023/09/02 01:29:34;;;;;;;0.30;0.30;;;;;;;16.77;74.48;99546.25;4983039;28;20120;-70
2023/09/02 01:32:01;;;;;;;0.22;0.22;;;;;;;16.76;74.40;99545.44;5002755;28;20141;-71
2023/09/02 01:34:30;;;;;;;0.20;0.20;;;;;;;16.78;74.30;99548.69;5004353;28;20057;-69
2023/09/02 01:36:59;;;;;;;0.20;0.20;;;;;;;16.83;74.08;99550.50;4990941;28;20528;-70
2023/09/02 01:39:26;;;;;;;0.20;0.20;;;;;;;16.82;74.30;99554.38;4985296;28;20587;-70
2023/09/02 01:41:53;;;;;;;0.20;0.20;;;;;;;16.83;74.09;99556.00;4983106;28;20509;-70
2023/09/02 01:44:22;;;;;;;0.20;0.20;;;;;;;16.79;74.48;99547.56;4988143;28;20092;-70
2023/09/02 01:46:49;;;;;;;0.20;0.20;;;;;;;16.77;74.34;99549.00;4984014;28;20074;-69
2023/09/02 01:49:16;;;;;;;0.20;0.20;;;;;;;16.72;74.47;99545.28;4982336;28;20084;-71
2023/09/02 01:51:44;;;;;;;0.30;0.30;;;;;;;16.78;74.49;99550.63;4982664;28;20126;-72
2023/09/02 01:54:10;;;;;;;0.20;0.20;;;;;;;16.76;74.57;99553.72;4984156;28;20073;-71
2023/09/02 01:56:37;;;;;;;0.20;0.20;;;;;;;16.82;74.39;99555.19;4985751;28;20057;-69
2023/09/02 01:59:04;;;;;;;0.20;0.20;;;;;;;16.81;74.50;99561.84;4949755;28;20680;-71
2023/09/02 02:01:34;;;;;;;0.20;0.20;;;;;;;16.83;74.15;99567.84;4983777;28;20050;-71
2023/09/02 02:04:06;;;;;;;0.20;0.20;;;;;;;16.70;73.92;99544.78;4982778;28;20145;-70
2023/09/02 02:06:34;;;;;;;0.20;0.20;;;;;;;16.79;74.44;99555.84;4958302;28;20432;-71
2023/09/02 02:09:04;;;;;;;0.20;0.20;;;;;;;16.87;73.93;99557.00;4986527;28;20050;-70
2023/09/02 02:11:34;;;;;;;0.20;0.20;;;;;;;16.91;74.14;99562.69;4980552;28;20076;-71
2023/09/02 02:14:01;;;;;;;0.22;0.22;;;;;;;16.89;74.30;99554.72;4981217;28;20525;-71
2023/09/02 02:16:28;;;;;;;;;;;;;;;16.95;74.24;99569.19;4980663;28;20074;-69
2023/09/02 02:18:57;;;;;;;0.20;0.20;;;;;;;16.95;73.83;99558.13;4968960;28;19932;-71
2023/09/02 02:21:23;;;;;;;0.20;0.20;;;;;;;16.93;74.17;99550.16;4981721;28;20049;-72
2023/09/02 02:23:50;;;;;;;;;;;;;;;16.91;74.13;99555.19;4986427;28;20197;-70
2023/09/02 02:26:17;;;;;;;0.20;0.20;;;;;;;16.87;73.68;99551.47;4984764;28;20039;-71
2023/09/02 02:28:43;;;;;;;0.20;0.20;;;;;;;16.85;74.36;99559.25;4983047;28;20148;-72
2023/09/02 02:31:09;;;;;;;0.20;0.20;;;;;;;16.83;74.08;99556.81;4984663;28;20479;-70
2023/09/02 02:33:38;;;;;;;0.20;0.20;;;;;;;16.82;74.18;99557.16;4967037;28;20541;-71
2023/09/02 02:36:09;;;;;;;0.20;0.20;;;;;;;16.82;74.21;99557.16;4982959;28;20042;-73
2023/09/02 02:38:35;;;;;;;0.20;0.20;;;;;;;16.81;74.27;99561.06;4992137;28;20049;-71
2023/09/02 02:41:02;;;;;;;0.20;0.20;;;;;;;16.83;74.36;99556.81;5002999;28;20157;-71
2023/09/02 02:43:28;;;;;;;0.20;0.20;;;;;;;16.77;74.77;99560.03;5003640;28;20046;-71
2023/09/02 02:45:54;;;;;;;0.20;0.20;;;;;;;16.78;74.68;99553.38;4982625;28;20068;-71
2023/09/02 02:48:27;;;;;;;0.20;0.20;;;;;;;16.79;74.63;99561.38;4984021;28;20112;-71
2023/09/02 02:50:53;;;;;;;0.20;0.20;;;;;;;16.82;74.20;99554.38;4968740;28;20061;-71
2023/09/02 02:53:20;;;;;;;0.20;0.20;;;;;;;16.82;74.12;99562.69;4982491;28;20145;-70
2023/09/02 02:55:47;;;;;;;0.20;0.20;;;;;;;16.86;73.95;99564.47;4999632;28;20050;-70
2023/09/02 02:58:15;;;;;;;0.20;0.20;;;;;;;16.72;73.90;99537.00;4985630;28;20050;-71
2023/09/02 03:00:43;;;;;;;0.20;0.20;;;;;;;16.80;74.31;99553.91;4982009;28;20054;-71
2023/09/02 03:03:09;;;;;;;0.20;0.20;;;;;;;16.81;74.69;99559.09;4984184;28;20081;-71
2023/09/02 03:05:36;;;;;;;0.20;0.20;;;;;;;16.79;75.00;99563.31;4983840;28;20497;-72
2023/09/02 03:08:03;;;;;;;;;;;;;;;16.78;75.11;99562.50;4984848;28;20421;-71
2023/09/02 03:10:33;;;;;;;0.20;0.20;;;;;;;16.79;74.49;99555.84;4984153;28;19932;-72
2023/09/02 03:13:00;;;;;;;0.20;0.20;;;;;;;16.80;74.54;99560.22;4981925;28;20082;-72
2023/09/02 03:15:27;;;;;;;0.20;0.20;;;;;;;16.80;74.16;99562.97;4983307;28;20048;-71
2023/09/02 03:17:53;;;;;;;0.20;0.20;;;;;;;16.77;74.32;99557.28;4965745;28;20057;-72
2023/09/02 03:20:20;;;;;;;0.20;0.20;;;;;;;16.72;74.78;99553.56;4965282;28;20085;-70
2023/09/02 03:22:47;;;;;;;0.20;0.20;;;;;;;16.76;74.60;99552.91;4983417;28;20046;-72
2023/09/02 03:25:13;;;;;;;0.20;0.20;;;;;;;16.76;74.59;99553.72;4983209;28;20061;-70
2023/09/02 03:27:41;;;;;;;0.20;0.20;;;;;;;16.82;74.23;99560.72;4982234;28;20145;-71
2023/09/02 03:30:08;;;;;;;0.20;0.20;;;;;;;16.91;73.96;99557.16;4981192;28;20305;-70
2023/09/02 03:32:35;;;;;;;;;;;;;;;16.92;74.14;99564.31;4982995;28;20053;-70
2023/09/02 03:35:03;;;;;;;0.20;0.20;;;;;;;16.92;73.49;99556.03;4981245;28;19932;-70
2023/09/02 03:37:29;;;;;;;0.20;0.20;;;;;;;16.94;73.18;99562.03;4981887;28;20141;-70
2023/09/02 03:39:55;;;;;;;0.20;0.20;;;;;;;16.95;73.14;99558.97;4982288;28;20047;-71
2023/09/02 03:42:21;;;;;;;0.20;0.20;;;;;;;16.96;73.29;99565.28;4981411;28;20441;-71
2023/09/02 03:44:50;;;;;;;0.20;0.20;;;;;;;16.95;73.46;99552.59;4982383;28;20105;-71
2023/09/02 03:47:16;;;;;;;0.20;0.20;;;;;;;16.94;73.06;99556.50;4981000;28;20042;-70
2023/09/02 03:49:42;;;;;;;0.20;0.20;;;;;;;16.92;73.09;99561.53;4977538;28;20047;-71
2023/09/02 03:52:09;;;;;;;0.30;0.30;;;;;;;16.91;73.46;99555.19;4977108;28;20046;-71
2023/09/02 03:54:36;;;;;;;;;;;;;;;16.99;73.86;99559.97;4962084;28;20070;-70
2023/09/02 03:57:05;;;;;;;0.30;0.30;;;;;;;17.04;73.52;99563.69;4981797;28;20028;-70
2023/09/02 03:59:31;;;;;;;0.25;0.25;;;;;;;17.07;73.01;99555.56;4984122;28;20046;-71
2023/09/02 04:01:59;;;;;;;0.20;0.20;;;;;;;17.08;73.16;99557.19;4986088;28;20395;-71
2023/09/02 04:04:25;;;;;;;0.20;0.20;;;;;;;17.12;72.95;99557.38;4975274;28;20070;-70
2023/09/02 04:06:52;;;;;;;0.20;0.20;;;;;;;17.19;72.80;99554.91;4975137;28;20149;-71
2023/09/02 04:09:18;;;;;;;0.20;0.20;;;;;;;17.25;72.51;99558.31;4977945;28;20064;-71
2023/09/02 04:11:45;;;;;;;0.25;0.25;;;;;;;17.35;72.21;99557.19;4984588;28;20050;-72
2023/09/02 04:14:11;;;;;;;0.20;0.20;;;;;;;17.41;71.69;99564.97;4981639;28;20050;-71
2023/09/02 04:16:38;;;;;;;0.30;0.30;;;;;;;17.49;71.46;99549.53;4982390;28;20049;-71
2023/09/02 04:19:05;;;;;;;0.20;0.20;;;;;;;17.58;71.10;99564.16;4980335;28;20465;-71
2023/09/02 04:21:32;;;;;;;0.20;0.20;;;;;;;17.70;70.79;99562.66;4984858;28;20050;-71
2023/09/02 04:23:58;;;;;;;0.20;0.20;;;;;;;17.80;70.51;99561.50;4983877;28;20051;-70
2023/09/02 04:26:25;;;;;;;0.30;0.30;;;;;;;17.90;70.41;99574.16;4982511;28;20062;-70
2023/09/02 04:28:55;;;;;;;0.20;0.20;;;;;;;17.97;70.13;99575.28;4983755;28;20062;-71
2023/09/02 04:31:22;;;;;;;0.30;0.30;;;;;;;18.06;69.63;99572.50;4986408;28;20061;-71
2023/09/02 04:33:50;;;;;;;0.20;0.20;;;;;;;18.11;68.84;99577.84;4963275;28;20047;-70
2023/09/02 04:36:17;;;;;;;0.30;0.30;;;;;;;18.20;68.45;99575.06;4962105;28;20085;-70
2023/09/02 04:38:45;;;;;;;0.30;0.30;;;;;;;18.33;68.08;99575.16;4962345;28;20051;-70
2023/09/02 04:41:11;;;;;;;0.30;0.30;;;;;;;18.53;68.01;99590.22;4962855;28;20078;-71
2023/09/02 04:43:39;;;;;;;0.30;0.30;;;;;;;18.71;67.11;99580.66;4980900;28;20505;-71
2023/09/02 04:46:09;;;;;;;0.30;0.30;;;;;;;18.76;66.45;99563.03;4980512;28;20048;-71
2023/09/02 04:48:38;;;;;;;0.30;0.30;;;;;;;18.93;66.01;99580.69;4980158;28;20060;-70
2023/09/02 04:51:08;;;;;;;0.30;0.30;;;;;;;18.97;65.30;99578.88;4981705;28;20047;-72
2023/09/02 04:53:36;;;;;;;0.20;0.20;;;;;;;19.00;65.29;99575.44;4979876;28;20050;-71
2023/09/02 04:56:04;;;;;;;0.30;0.30;;;;;;;18.99;65.65;99566.34;4955118;28;20407;-71
2023/09/02 04:58:32;;;;;;;0.30;0.30;;;;;;;19.05;65.11;99575.25;4966079;28;20066;-70
2023/09/02 05:01:07;;;;;;;0.20;0.20;;;;;;;19.16;64.58;99578.44;4966426;28;20057;-69
2023/09/02 05:03:33;;;;;;;0.30;0.30;;;;;;;19.23;64.46;99575.91;4973515;28;20214;-71
2023/09/02 05:06:00;;;;;;;0.28;0.28;;;;;;;19.28;63.55;99572.13;4974914;28;20066;-71
2023/09/02 05:08:31;;;;;;;0.30;0.30;;;;;;;19.30;62.70;99578.13;4993374;28;20081;-71
2023/09/02 05:11:00;;;;;;;0.20;0.20;;;;;;;19.19;62.67;99577.75;4963366;28;20173;-72
2023/09/02 05:13:26;;;;;;;0.20;0.20;;;;;;;19.18;62.84;99567.00;4977185;28;20055;-71
2023/09/02 05:15:52;;;;;;;0.30;0.30;;;;;;;19.32;62.59;99570.28;4981120;28;20047;-71
2023/09/02 05:18:19;;;;;;;0.20;0.20;;;;;;;19.39;61.55;99570.56;4976751;28;20046;-70
2023/09/02 05:20:45;;;;;;;0.30;0.30;;;;;;;19.35;61.99;99569.59;4977173;28;20080;-71
2023/09/02 05:23:12;;;;;;;0.30;0.30;;;;;;;19.32;62.00;99578.59;4965933;28;20070;-70
2023/09/02 05:25:39;;;;;;;0.30;0.30;;;;;;;19.44;62.22;99577.03;4976681;28;20052;-72
2023/09/02 05:28:06;;;;;;;0.30;0.30;;;;;;;19.34;61.40;99568.00;4977629;28;20154;-71
2023/09/02 05:30:35;;;;;;;0.30;0.30;;;;;;;19.53;60.99;99592.44;4980064;28;20054;-72
2023/09/02 05:33:01;;;;;;;0.30;0.30;;;;;;;19.56;61.75;99586.22;4987422;28;20038;-70
2023/09/02 05:35:27;;;;;;;0.30;0.30;;;;;;;19.54;61.81;99596.03;4981592;28;20117;-70
2023/09/02 05:37:54;;;;;;;0.30;0.30;;;;;;;19.62;60.82;99594.34;4970282;28;20034;-72
2023/09/02 05:40:20;;;;;;;0.30;0.30;;;;;;;19.68;61.03;99596.56;4976369;28;20046;-71
2023/09/02 05:42:46;;;;;;;0.20;0.20;;;;;;;19.82;60.25;99592.66;4984759;28;20070;-70
2023/09/02 05:45:14;;;;;;;0.30;0.30;;;;;;;19.91;59.75;99590.59;4991096;28;20064;-71
2023/09/02 05:47:40;;;;;;;0.30;0.30;;;;;;;19.97;59.70;99594.78;4985134;28;20058;-72
2023/09/02 05:50:07;;;;;;;0.30;0.30;;;;;;;20.16;59.46;99592.63;4966629;28;20146;-72
2023/09/02 05:52:34;;;;;;;0.30;0.30;;;;;;;20.34;59.06;99590.47;4966480;28;20054;-72
2023/09/02 05:55:01;;;;;;;0.30;0.30;;;;;;;20.43;58.51;99591.16;4980910;28;20533;-71
2023/09/02 05:57:27;;;;;;;0.30;0.30;;;;;;;20.52;58.61;99591.84;4970940;28;20517;-71
2023/09/02 05:59:53;;;;;;;0.30;0.30;;;;;;;20.67;58.09;99590.31;4998787;28;20070;-71
2023/09/02 06:02:21;;;;;;;0.30;0.30;;;;;;;20.60;57.67;99586.50;4986450;28;20058;-70
2023/09/02 06:04:47;;;;;;;0.30;0.30;;;;;;;20.65;57.78;99589.88;4988857;28;20368;-72
2023/09/02 06:07:13;;;;;;;0.30;0.30;;;;;;;20.69;57.69;99592.78;4984980;28;20046;-72
2023/09/02 06:09:39;;;;;;;0.30;0.30;;;;;;;20.72;57.37;99605.94;4986554;28;20050;-71
2023/09/02 06:12:07;;;;;;;0.30;0.30;;;;;;;20.59;57.56;99607.94;4987431;28;20100;-71
2023/09/02 06:14:33;;;;;;;0.30;0.30;;;;;;;20.50;58.05;99602.50;4970416;28;20047;-72
2023/09/02 06:16:59;;;;;;;0.30;0.30;;;;;;;20.39;59.44;99604.13;4968339;28;20047;-72
2023/09/02 06:19:27;;;;;;;0.30;0.30;;;;;;;20.43;60.07;99609.78;4983671;28;20313;-71
2023/09/02 06:21:53;;;;;;;0.30;0.30;;;;;;;20.57;59.53;99607.47;4965560;28;20505;-71
2023/09/02 06:24:19;;;;;;;0.30;0.30;;;;;;;20.61;58.50;99613.16;4966721;28;20050;-72
2023/09/02 06:26:45;;;;;;;0.30;0.30;;;;;;;20.54;58.77;99611.75;4963557;28;20173;-71
2023/09/02 06:29:13;;;;;;;0.30;0.30;;;;;;;20.52;58.49;99613.25;4985091;28;20145;-72
2023/09/02 06:31:39;;;;;;;0.30;0.30;;;;;;;20.54;58.40;99620.09;4985281;28;20054;-71
2023/09/02 06:34:05;;;;;;;0.30;0.30;;;;;;;20.58;58.57;99619.38;4986331;28;20044;-72
2023/09/02 06:36:33;;;;;;;0.30;0.30;;;;;;;20.62;58.23;99621.13;4986918;28;20058;-72
2023/09/02 06:38:59;;;;;;;0.40;0.40;;;;;;;20.64;58.05;99620.78;4988026;28;20038;-72
2023/09/02 06:41:25;;;;;;;0.30;0.30;;;;;;;20.77;58.27;99622.41;4987205;28;20528;-72
2023/09/02 06:43:51;;;;;;;0.40;0.40;;;;;;;20.81;57.83;99626.13;4981362;28;20073;-72
2023/09/02 06:46:19;;;;;;;0.30;0.30;;;;;;;20.78;58.14;99621.25;4966629;28;20063;-70
2023/09/02 06:48:46;;;;;;;0.30;0.30;;;;;;;20.82;58.17;99622.19;4965604;28;21572;-71
2023/09/02 06:51:12;;;;;;;0.30;0.30;;;;;;;20.93;58.17;99628.06;4981060;28;20117;-71
2023/09/02 06:53:40;;;;;;;0.30;0.30;;;;;;;21.06;57.26;99616.94;4979190;28;20686;-72
2023/09/02 06:56:12;;;;;;;0.30;0.30;;;;;;;21.32;57.33;99627.66;4986411;28;20065;-71
2023/09/02 06:58:40;;;;;;;0.30;0.30;;;;;;;21.44;55.77;99637.13;4984615;28;20092;-72
2023/09/02 07:01:06;;;;;;;0.40;0.40;;;;;;;21.44;55.92;99623.22;4985551;28;20066;-71
2023/09/02 07:03:32;;;;;;;0.30;0.30;;;;;;;21.47;55.94;99640.03;4983749;28;20046;-71
2023/09/02 07:06:06;;;;;;;0.40;0.40;;;;;;;21.57;55.45;99633.13;4982547;28;20393;-71
2023/09/02 07:08:33;;;;;;;0.43;0.43;;;;;;;22.04;54.35;99644.78;4964143;28;20120;-72
2023/09/02 07:11:00;;;;;;;0.40;0.40;;;;;;;22.21;53.82;99616.59;4980700;28;20058;-70
2023/09/02 07:13:26;;;;;;;0.40;0.40;;;;;;;22.89;51.78;99644.53;4984574;28;20066;-72
2023/09/02 07:15:58;;;;;;;0.40;0.40;;;;;;;23.12;50.42;99646.63;4985912;28;20141;-72
2023/09/02 07:18:25;;;;;;;0.30;0.30;;;;;;;23.02;50.79;99648.00;4984121;28;20054;-73
2023/09/02 07:20:51;;;;;;;0.30;0.30;;;;;;;22.95;51.70;99647.84;4979301;28;20097;-73
2023/09/02 07:23:17;;;;;;;0.40;0.40;;;;;;;22.97;50.75;99645.50;4988385;28;20050;-73
2023/09/02 07:25:43;;;;;;;0.40;0.40;;;;;;;23.01;50.54;99640.81;4987129;28;20464;-73
2023/09/02 07:28:11;;;;;;;0.30;0.30;;;;;;;23.06;50.96;99650.88;4966635;28;20062;-72
2023/09/02 07:30:37;;;;;;;0.40;0.40;;;;;;;23.36;50.60;99651.16;4985938;28;20091;-73
2023/09/02 07:33:06;;;;;;;0.40;0.40;;;;;;;23.64;49.85;99644.56;4988269;28;20375;-74
2023/09/02 07:35:36;;;;;;;0.30;0.30;;;;;;;23.58;49.23;99623.72;4985750;28;20076;-73
2023/09/02 07:38:04;;;;;;;0.40;0.40;;;;;;;23.67;49.38;99634.66;4986475;28;20047;-73
2023/09/02 07:40:34;;;;;;;0.30;0.30;;;;;;;23.54;49.29;99634.00;4968600;28;20042;-73
2023/09/02 07:43:04;;;;;;;0.40;0.30;;;;;;;23.51;49.62;99645.88;4967583;28;20108;-74
2023/09/02 07:45:36;;;;;;;0.30;0.30;;;;;;;23.51;50.32;99654.25;4985675;28;20065;-73
2023/09/02 07:48:03;;;;;;;0.30;0.30;;;;;;;23.46;50.22;99649.78;4983803;28;20057;-71
2023/09/02 07:50:30;;;;;;;0.30;0.30;;;;;;;23.34;50.45;99642.34;4985410;28;20521;-74
2023/09/02 07:52:56;;;;;;;0.30;0.30;;;;;;;22.82;51.80;99643.56;4963172;28;20054;-71
2023/09/02 07:55:24;;;;;;;0.28;0.28;;;;;;;22.65;51.51;99646.34;4966920;28;20043;-74
2023/09/02 07:57:51;;;;;;;0.30;0.30;;;;;;;22.46;51.87;99652.59;4997491;28;20149;-74
2023/09/02 08:00:20;;;;;;;0.30;0.30;;;;;;;22.06;52.95;99656.38;4988395;28;20081;-73
2023/09/02 08:02:48;;;;;;;0.30;0.30;;;;;;;21.80;54.02;99654.84;4969572;28;20249;-73
2023/09/02 08:05:15;;;;;;;0.30;0.30;;;;;;;21.75;54.10;99660.69;4984083;28;20042;-72
2023/09/02 08:07:41;;;;;;;0.20;0.20;;;;;;;21.58;54.14;99668.13;4981346;28;20134;-73
2023/09/02 08:10:09;;;;;;;0.30;0.30;;;;;;;21.39;54.88;99671.53;5000302;28;20505;-73
2023/09/02 08:12:35;;;;;;;0.30;0.30;;;;;;;21.22;55.42;99667.06;4983771;28;20125;-73
2023/09/02 08:15:02;;;;;;;0.30;0.30;;;;;;;21.14;55.30;99643.78;4983896;28;20073;-74
2023/09/02 08:17:29;;;;;;;0.30;0.30;;;;;;;21.25;55.90;99663.59;4982528;28;20473;-72
2023/09/02 08:19:57;;;;;;;0.20;0.20;;;;;;;21.15;55.68;99681.56;4986121;28;20050;-71
2023/09/02 08:22:23;;;;;;;0.30;0.30;;;;;;;21.06;56.34;99678.88;4985178;28;20049;-73
2023/09/02 08:24:49;;;;;;;0.30;0.30;;;;;;;21.07;56.32;99685.28;4985663;28;20038;-72
2023/09/02 08:27:16;;;;;;;0.30;0.30;;;;;;;21.04;56.60;99681.22;4984904;28;20493;-72
2023/09/02 08:29:42;;;;;;;0.30;0.30;;;;;;;21.07;57.03;99688.03;4971823;28;20398;-72
2023/09/02 08:32:08;;;;;;;0.30;0.30;;;;;;;21.01;57.18;99681.91;4966088;28;20058;-72
2023/09/02 08:34:34;;;;;;;0.30;0.30;;;;;;;20.91;57.33;99694.31;4947772;28;20047;-72
2023/09/02 08:37:03;;;;;;;0.20;0.20;;;;;;;20.82;57.21;99679.72;4966159;28;20052;-71
2023/09/02 08:39:29;;;;;;;0.30;0.30;;;;;;;20.87;57.64;99695.34;5003890;28;20109;-72
2023/09/02 08:41:55;;;;;;;0.30;0.30;;;;;;;20.81;57.92;99691.97;4988041;28;20046;-71
2023/09/02 08:44:26;;;;;;;0.30;0.30;;;;;;;20.84;57.81;99691.31;4986434;28;20428;-71
2023/09/02 08:46:53;;;;;;;0.30;0.30;;;;;;;20.95;57.86;99698.00;5001845;28;20050;-72
2023/09/02 08:49:20;;;;;;;0.30;0.30;;;;;;;21.01;57.80;99704.13;4984530;28;20053;-71
2023/09/02 08:51:46;;;;;;;0.30;0.30;;;;;;;20.95;58.64;99703.56;4983491;28;20054;-71
2023/09/02 08:54:15;;;;;;;0.43;0.38;;;;;;;20.85;59.03;99706.81;4970328;28;20089;-71
2023/09/02 08:56:42;;;;;;;0.30;0.30;;;;;;;20.71;60.09;99715.44;4983406;28;20061;-73
2023/09/02 08:59:09;;;;;;;0.30;0.30;;;;;;;20.54;60.40;99713.69;4968723;28;20069;-71
2023/09/02 09:01:41;;;;;;;0.30;0.30;;;;;;;20.47;60.53;99714.25;4966017;28;20133;-73
2023/09/02 09:04:08;;;;;;;0.30;0.30;;;;;;;20.43;60.79;99727.19;4966159;28;20628;-73
2023/09/02 09:06:36;;;;;;;0.20;0.20;;;;;;;20.29;60.42;99723.91;4984309;28;20081;-72
2023/09/02 09:09:06;;;;;;;0.20;0.20;;;;;;;20.30;61.38;99725.56;4984340;28;20525;-72
2023/09/02 09:11:36;;;;;;;0.30;0.30;;;;;;;20.31;61.52;99727.19;4966352;28;20097;-73
2023/09/02 09:14:03;;;;;;;0.30;0.30;;;;;;;20.34;62.32;99726.50;4966824;28;20062;-74
2023/09/02 09:16:33;;;;;;;;;;;;;;;20.42;62.17;99741.44;4977067;28;21012;-73
2023/09/02 09:18:59;;;;;;;0.30;0.30;;;;;;;20.52;61.08;99739.03;4966557;28;19932;-73
2023/09/02 09:21:25;;;;;;;0.22;0.22;;;;;;;20.58;61.24;99747.13;4986147;28;20046;-73
2023/09/02 09:23:52;;;;;;;0.22;0.22;;;;;;;20.62;59.71;99746.09;4985630;28;20104;-73
2023/09/02 09:26:19;;;;;;;0.30;0.30;;;;;;;20.63;60.48;99752.47;4982918;28;20048;-73
2023/09/02 09:28:52;;;;;;;0.60;0.40;;;;;;;20.39;60.19;99746.53;4984877;28;20073;-73
2023/09/02 09:31:19;;;;;;;0.30;0.30;;;;;;;20.26;61.63;99762.31;4988445;28;20046;-73
2023/09/02 09:33:50;;;;;;;0.30;0.30;;;;;;;20.08;62.30;99756.13;4988063;28;20053;-72
2023/09/02 09:36:17;;;;;;;0.30;0.30;;;;;;;19.96;63.21;99756.06;4987055;28;20050;-73
2023/09/02 09:38:43;;;;;;;0.30;0.30;;;;;;;19.86;63.51;99756.44;4982417;28;20399;-74
2023/09/02 09:41:09;;;;;;;0.30;0.30;;;;;;;19.84;64.04;99765.91;4966516;28;20046;-73
2023/09/02 09:43:36;;;;;;;0.30;0.30;;;;;;;19.84;62.56;99765.13;4967364;28;20579;-73
2023/09/02 09:46:04;;;;;;;0.30;0.30;;;;;;;19.90;63.04;99762.94;4967076;28;20071;-72
2023/09/02 09:48:30;;;;;;;0.30;0.30;;;;;;;19.91;63.82;99776.47;4965461;28;20054;-72
2023/09/02 09:50:57;;;;;;;0.30;0.30;;;;;;;19.82;64.60;99773.78;4971888;28;20080;-73
2023/09/02 09:53:26;;;;;;;0.20;0.20;;;;;;;19.77;64.27;99771.22;4983901;28;20468;-73
2023/09/02 09:55:52;;;;;;;0.20;0.20;;;;;;;19.76;64.43;99777.06;4984260;28;20046;-74
2023/09/02 09:58:23;;;;;;;0.20;0.20;;;;;;;19.70;64.74;99771.75;4979924;28;20066;-74
2023/09/02 10:00:52;;;;;;;0.30;0.30;;;;;;;19.55;64.68;99752.94;4981539;28;20043;-73
2023/09/02 10:03:28;;;;;;;0.30;0.30;;;;;;;19.74;64.62;99768.28;4985570;28;20046;-73
2023/09/02 10:05:58;;;;;;;0.20;0.20;;;;;;;19.88;65.95;99787.44;4968067;28;20046;-73
2023/09/02 10:08:24;;;;;;;0.30;0.30;;;;;;;19.95;66.07;99776.66;4983554;28;20038;-75
2023/09/02 10:10:51;;;;;;;0.30;0.30;;;;;;;20.05;65.81;99775.41;4985701;28;20069;-73
2023/09/02 10:13:18;;;;;;;0.30;0.30;;;;;;;20.15;65.52;99783.34;4983715;28;20098;-74
2023/09/02 10:15:47;;;;;;;0.30;0.30;;;;;;;20.30;65.00;99784.66;4987590;28;20132;-74
2023/09/02 10:18:16;;;;;;;0.30;0.30;;;;;;;20.36;65.01;99786.06;4952805;28;20047;-73
2023/09/02 10:20:45;;;;;;;0.30;0.30;;;;;;;20.35;64.53;99778.88;5008428;28;20053;-73
2023/09/02 10:23:11;;;;;;;0.20;0.20;;;;;;;20.37;64.35;99779.38;4978216;28;20294;-74
2023/09/02 10:25:45;;;;;;;0.30;0.30;;;;;;;20.46;63.69;99790.41;4983378;28;20050;-73
2023/09/02 10:28:15;;;;;;;0.30;0.30;;;;;;;20.52;64.83;99790.97;4968529;28;20551;-73
2023/09/02 10:30:48;;;;;;;0.20;0.20;;;;;;;20.52;65.38;99782.63;4971822;28;20062;-73
2023/09/02 10:33:23;;;;;;;0.30;0.30;;;;;;;20.50;65.94;99793.28;4976709;28;20434;-72
2023/09/02 10:35:57;;;;;;;0.30;0.30;;;;;;;20.50;66.73;99794.09;4967712;28;20047;-74
2023/09/02 10:38:26;;;;;;;0.30;0.30;;;;;;;20.55;66.62;99791.09;4967380;28;20042;-74
2023/09/02 10:40:59;;;;;;;0.30;0.30;;;;;;;20.65;65.76;99789.84;4994107;28;20637;-74
2023/09/02 10:43:26;;;;;;;0.30;0.30;;;;;;;20.70;64.93;99786.03;4974486;28;20050;-74
2023/09/02 10:45:53;;;;;;;0.28;0.28;;;;;;;20.79;65.66;99794.28;4985302;28;20459;-75
2023/09/02 10:48:19;;;;;;;0.30;0.30;;;;;;;20.85;65.22;99797.69;4983630;28;20064;-75
2023/09/02 10:50:46;;;;;;;0.30;0.30;;;;;;;20.90;64.97;99797.44;4984914;28;20065;-73
2023/09/02 10:53:43;;;;;;;0.30;0.30;;;;;;;20.93;65.07;99800.34;4982639;28;20042;-73
2023/09/02 10:56:09;;;;;;;0.30;0.30;;;;;;;20.92;65.87;99803.50;4982723;28;20039;-75
2023/09/02 10:58:48;;;;;;;0.30;0.30;;;;;;;20.89;66.50;99816.09;4979454;28;20042;-73
2023/09/02 11:01:14;;;;;;;0.30;0.30;;;;;;;20.86;67.69;99810.41;4976426;28;20057;-75
2023/09/02 11:03:46;;;;;;;0.30;0.30;;;;;;;20.84;67.81;99816.34;4980807;28;20525;-74
2023/09/02 11:06:15;;;;;;;0.30;0.30;;;;;;;20.80;67.97;99807.00;4975356;28;20262;-73
2023/09/02 11:08:46;;;;;;;0.30;0.30;;;;;;;20.80;67.67;99799.53;4952058;28;20057;-73
2023/09/02 11:11:13;;;;;;;0.30;0.30;;;;;;;20.81;66.79;99806.72;4282027;28;10000504;-73
2023/09/02 11:14:15;;;;;;;0.30;0.30;;;;;;;20.72;67.35;99810.72;4974387;28;20050;-74
2023/09/02 11:16:42;;;;;;;0.30;0.30;;;;;;;20.67;67.98;99808.97;4974539;28;20062;-74
2023/09/02 11:19:09;;;;;;;0.30;0.30;;;;;;;20.71;68.35;99803.53;4991558;28;20042;-74
2023/09/02 11:21:40;;;;;;;0.30;0.30;;;;;;;20.60;68.61;99800.34;4971876;28;20047;-73
2023/09/02 11:24:15;;;;;;;0.30;0.30;;;;;;;20.55;69.01;99802.22;4967823;28;20054;-73
2023/09/02 11:26:52;;;;;;;0.30;0.30;;;;;;;20.40;69.35;99788.97;4977976;28;20055;-74
2023/09/02 11:29:22;;;;;;;;;;;;;;;20.42;69.46;99802.53;4973027;28;20051;-74
2023/09/02 11:31:55;;;;;;;0.25;0.25;;;;;;;20.41;69.18;99812.78;4987934;28;19936;-73
2023/09/02 11:34:24;;;;;;;0.30;0.30;;;;;;;;;;4978951;28;20042;-73
2023/09/02 11:36:53;;;;;;;0.30;0.30;;;;;;;20.25;70.47;99815.41;4981427;28;20176;-73
2023/09/02 11:39:25;;;;;;;0.30;0.30;;;;;;;20.08;71.59;99816.34;4982729;28;20043;-72